createdAt,value
2022-08-29T00:00:02.155Z,98736.28
2022-08-29T00:03:18.311Z,98744.98
2022-08-29T00:06:30.714Z,98742.91
2022-08-29T00:09:42.698Z,98745.22
2022-08-29T00:12:54.515Z,98749.36
2022-08-29T00:16:08.857Z,98743.70
2022-08-29T00:19:20.448Z,98746.61
2022-08-29T00:22:32.184Z,98745.95
2022-08-29T00:25:45.008Z,98751.98
2022-08-29T00:28:56.559Z,98744.72
2022-08-29T00:32:08.600Z,98744.94
2022-08-29T00:35:23.737Z,98745.33
2022-08-29T00:38:35.595Z,98746.58
2022-08-29T00:41:47.336Z,98746.38
2022-08-29T00:44:58.866Z,98739.33
2022-08-29T00:48:15.270Z,98744.70
2022-08-29T00:51:28.566Z,98744.92
2022-08-29T00:54:40.866Z,98751.14
2022-08-29T00:57:57.534Z,98737.84
2022-08-29T01:01:10.529Z,98749.47
2022-08-29T01:04:23.732Z,98744.92
2022-08-29T01:07:36.354Z,98743.03
2022-08-29T01:11:04.867Z,98748.23
2022-08-29T01:14:17.932Z,98751.95
2022-08-29T01:17:32.478Z,98749.86
2022-08-29T01:20:51.228Z,98746.98
2022-08-29T01:24:10.525Z,98754.02
2022-08-29T01:27:24.302Z,98747.58
2022-08-29T01:30:36.168Z,98743.39
2022-08-29T01:33:51.775Z,98743.18
2022-08-29T01:37:06.886Z,98747.31
2022-08-29T01:40:19.677Z,98751.02
2022-08-29T01:43:32.767Z,98749.79
2022-08-29T01:46:45.371Z,98752.70
2022-08-29T01:49:57.771Z,98754.34
2022-08-29T01:53:09.445Z,98743.98
2022-08-29T01:56:25.394Z,98758.30
2022-08-29T01:59:37.957Z,98761.80
2022-08-29T02:02:49.747Z,98761.80
2022-08-29T02:06:03.381Z,98764.70
2022-08-29T02:09:15.427Z,98765.96
2022-08-29T02:12:27.526Z,98765.55
2022-08-29T02:15:39.748Z,98762.81
2022-08-29T02:18:51.916Z,98767.81
2022-08-29T02:22:03.836Z,98755.56
2022-08-29T02:25:32.289Z,98767.81
2022-08-29T02:28:44.923Z,98756.16
2022-08-29T02:31:56.615Z,98760.11
2022-08-29T02:35:08.733Z,98758.67
2022-08-29T02:38:24.142Z,98762.81
2022-08-29T02:41:36.077Z,98765.95
2022-08-29T02:44:47.822Z,98757.24
2022-08-29T02:47:59.787Z,98761.80
2022-08-29T02:51:11.822Z,98760.98
2022-08-29T02:54:23.822Z,98770.51
2022-08-29T02:57:35.536Z,98772.16
2022-08-29T03:00:48.234Z,98765.75
2022-08-29T03:04:00.182Z,98777.16
2022-08-29T03:07:12.022Z,98771.98
2022-08-29T03:10:24.208Z,98779.69
2022-08-29T03:13:37.036Z,98777.55
2022-08-29T03:16:48.957Z,98778.38
2022-08-29T03:20:01.496Z,98768.83
2022-08-29T03:23:13.910Z,98784.20
2022-08-29T03:26:26.363Z,98780.88
2022-08-29T03:29:38.389Z,98778.97
2022-08-29T03:32:50.703Z,98784.57
2022-08-29T03:36:02.328Z,98787.47
2022-08-29T03:39:15.982Z,98789.74
2022-08-29T03:42:28.252Z,98795.72
2022-08-29T03:45:40.108Z,98800.42
2022-08-29T03:48:52.118Z,98806.45
2022-08-29T03:52:04.447Z,98814.10
2022-08-29T03:55:20.277Z,98812.83
2022-08-29T03:58:32.896Z,98813.05
2022-08-29T04:01:47.651Z,98819.23
2022-08-29T04:05:12.197Z,98819.87
2022-08-29T04:11:29.913Z,98833.34
2022-08-29T04:14:41.659Z,98842.20
2022-08-29T04:18:01.067Z,98841.94
2022-08-29T04:21:15.516Z,98849.88
2022-08-29T04:24:27.168Z,98853.55
2022-08-29T04:27:39.584Z,98854.77
2022-08-29T04:30:58.109Z,98851.44
2022-08-29T04:34:11.590Z,98866.32
2022-08-29T04:37:25.485Z,98867.36
2022-08-29T04:40:46.981Z,98867.39
2022-08-29T04:43:58.819Z,98871.13
2022-08-29T04:47:10.894Z,98866.58
2022-08-29T04:50:26.793Z,98868.81
2022-08-29T04:53:39.743Z,98872.48
2022-08-29T04:56:51.290Z,98873.39
2022-08-29T05:00:06.838Z,98883.75
2022-08-29T05:03:18.632Z,98887.08
2022-08-29T05:06:31.127Z,98894.73
2022-08-29T05:09:43.215Z,98901.46
2022-08-29T05:13:04.812Z,98899.81
2022-08-29T05:16:20.695Z,98908.06
2022-08-29T05:19:34.643Z,98908.02
2022-08-29T05:22:54.865Z,98911.16
2022-08-29T05:26:09.238Z,98913.20
2022-08-29T05:29:22.034Z,98921.68
2022-08-29T05:32:33.788Z,98924.74
2022-08-29T05:35:47.321Z,98927.88
2022-08-29T05:38:58.964Z,98930.84
2022-08-29T05:42:12.673Z,98926.86
2022-08-29T05:45:24.514Z,98924.30
2022-08-29T05:48:36.622Z,98934.42
2022-08-29T05:51:50.403Z,98931.17
2022-08-29T05:55:02.032Z,98932.30
2022-08-29T05:58:14.552Z,98923.14
2022-08-29T06:01:36.296Z,98930.69
2022-08-29T06:04:48.147Z,98930.33
2022-08-29T06:07:59.902Z,98938.97
2022-08-29T06:11:11.922Z,98938.60
2022-08-29T06:14:25.237Z,98939.04
2022-08-29T06:17:37.765Z,98950.30
2022-08-29T06:20:49.610Z,98951.91
2022-08-29T06:24:02.014Z,98958.48
2022-08-29T06:27:14.147Z,98968.89
2022-08-29T06:33:29.233Z,98965.36
2022-08-29T06:36:42.513Z,98972.87
2022-08-29T06:39:57.038Z,98985.68
2022-08-29T06:43:09.093Z,98979.77
2022-08-29T06:46:31.557Z,98975.54
2022-08-29T06:49:44.021Z,98988.84
2022-08-29T06:52:55.820Z,98990.78
2022-08-29T06:56:30.178Z,98997.84
2022-08-29T06:59:42.704Z,98987.73
2022-08-29T07:11:43.345Z,98993.24
2022-08-29T07:18:38.844Z,99011.11
2022-08-29T07:21:52.893Z,98999.78
2022-08-29T07:25:05.213Z,99001.55
2022-08-29T07:28:17.462Z,99008.22
2022-08-29T07:31:31.091Z,99014.02
2022-08-29T07:34:43.402Z,99006.59
2022-08-29T07:37:55.641Z,99012.83
2022-08-29T07:41:10.105Z,99013.06
2022-08-29T07:44:23.490Z,98999.27
2022-08-29T07:47:36.731Z,99009.06
2022-08-29T07:50:58.358Z,99017.88
2022-08-29T07:54:11.267Z,99017.19
2022-08-29T07:57:25.653Z,99009.16
2022-08-29T08:00:37.909Z,99006.73
2022-08-29T08:03:50.683Z,99014.73
2022-08-29T08:07:03.027Z,99022.55
2022-08-29T08:10:17.678Z,99026.77
2022-08-29T08:13:30.504Z,99031.80
2022-08-29T08:16:43.996Z,99032.05
2022-08-29T08:19:57.431Z,99036.35
2022-08-29T08:23:10.124Z,99044.30
2022-08-29T08:26:22.713Z,99040.88
2022-08-29T08:29:34.956Z,99043.08
2022-08-29T08:32:49.557Z,99032.20
2022-08-29T08:36:01.694Z,99032.30
2022-08-29T08:39:13.995Z,99046.78
2022-08-29T08:42:31.893Z,99046.48
2022-08-29T08:45:46.842Z,99042.58
2022-08-29T08:49:02.094Z,99046.23
2022-08-29T08:52:23.513Z,99049.80
2022-08-29T08:55:44.983Z,99045.72
2022-08-29T08:59:03.062Z,99052.11
2022-08-29T09:02:26.893Z,99040.92
2022-08-29T09:05:50.893Z,99053.03
2022-08-29T09:09:10.375Z,99046.39
2022-08-29T09:12:35.162Z,99043.55
2022-08-29T09:15:52.689Z,99033.53
2022-08-29T09:19:10.889Z,99037.23
2022-08-29T09:22:32.669Z,99047.33
2022-08-29T09:25:43.204Z,99040.30
2022-08-29T09:28:57.341Z,99035.39
2022-08-29T09:32:22.290Z,99041.23
2022-08-29T09:35:39.656Z,99041.77
2022-08-29T09:38:52.089Z,99044.94
2022-08-29T09:42:08.537Z,99035.19
2022-08-29T09:45:28.156Z,99034.97
2022-08-29T09:48:41.065Z,99029.03
2022-08-29T09:51:54.749Z,99047.22
2022-08-29T09:55:29.014Z,99040.24
2022-08-29T09:58:45.946Z,99047.81
2022-08-29T10:16:07.450Z,99035.98
2022-08-29T10:19:22.798Z,99035.78
2022-08-29T10:31:42.048Z,99024.69
2022-08-29T10:35:08.962Z,99025.39
2022-08-29T10:38:29.860Z,98996.33
2022-08-29T10:41:50.405Z,99031.19
2022-08-29T10:45:15.072Z,99025.04
2022-08-29T10:48:31.682Z,99023.61
2022-08-29T10:51:48.849Z,99020.61
2022-08-29T10:55:08.377Z,99020.15
2022-08-29T10:58:31.187Z,99021.00
2022-08-29T11:01:47.896Z,99034.78
2022-08-29T11:05:06.167Z,99043.25
2022-08-29T11:11:20.344Z,99029.30
2022-08-29T11:14:49.709Z,99015.98
2022-08-29T11:18:08.286Z,99024.80
2022-08-29T11:21:31.712Z,99020.56
2022-08-29T11:24:47.295Z,99003.97
2022-08-29T11:28:08.530Z,99010.02
2022-08-29T11:31:26.619Z,99017.81
2022-08-29T11:34:52.745Z,99013.73
2022-08-29T11:38:59.278Z,99003.59
2022-08-29T11:42:49.758Z,99005.91
2022-08-29T11:45:37.572Z,99015.47
2022-08-29T11:48:59.271Z,99010.91
2022-08-29T11:52:26.943Z,99009.72
2022-08-29T11:55:42.565Z,99007.76
2022-08-29T11:58:56.608Z,99006.20
2022-08-29T12:02:09.486Z,99011.63
2022-08-29T12:06:02.281Z,99018.20
2022-08-29T12:09:31.410Z,99019.95
2022-08-29T12:12:55.150Z,99013.64
2022-08-29T12:16:15.015Z,99022.63
2022-08-29T12:19:54.296Z,99006.78
2022-08-29T12:23:12.689Z,99009.66
2022-08-29T12:26:48.848Z,98991.39
2022-08-29T12:30:01.236Z,99008.17
2022-08-29T12:33:27.646Z,99016.75
2022-08-29T12:37:10.692Z,99002.70
2022-08-29T12:40:53.754Z,99009.63
2022-08-29T12:44:09.193Z,99002.88
2022-08-29T12:47:26.616Z,98997.34
2022-08-29T12:50:43.677Z,99001.45
2022-08-29T12:53:57.838Z,99004.28
2022-08-29T12:57:12.591Z,98998.13
2022-08-29T13:00:29.517Z,98985.61
2022-08-29T13:03:41.485Z,98990.01
2022-08-29T13:07:03.047Z,98991.02
2022-08-29T13:10:20.544Z,98989.21
2022-08-29T13:13:34.420Z,99000.33
2022-08-29T13:16:47.470Z,99000.66
2022-08-29T13:20:47.317Z,98993.52
2022-08-29T13:24:15.834Z,98992.23
2022-08-29T13:27:29.492Z,98985.87
2022-08-29T13:30:41.515Z,98987.23
2022-08-29T13:34:26.157Z,98989.75
2022-08-29T13:37:41.161Z,98980.88
2022-08-29T13:40:54.936Z,98976.31
2022-08-29T13:44:07.760Z,98980.52
2022-08-29T13:47:24.636Z,98973.93
2022-08-29T13:50:37.604Z,98916.81
2022-08-29T13:53:50.781Z,98976.71
2022-08-29T13:57:07.371Z,98976.22
2022-08-29T14:00:32.026Z,98985.69
2022-08-29T14:03:38.160Z,98975.47
2022-08-29T14:06:51.364Z,98968.97
2022-08-29T14:10:04.163Z,98973.24
2022-08-29T14:13:16.172Z,98973.30
2022-08-29T14:16:29.126Z,98982.06
2022-08-29T14:19:41.526Z,98972.24
2022-08-29T14:22:55.527Z,98973.08
2022-08-29T14:26:07.684Z,98978.52
2022-08-29T14:29:20.452Z,98980.16
2022-08-29T14:32:32.430Z,98990.71
2022-08-29T14:35:44.543Z,98993.80
2022-08-29T14:38:57.904Z,98984.67
2022-08-29T14:42:11.134Z,98982.41
2022-08-29T14:45:23.443Z,98980.16
2022-08-29T14:48:35.280Z,98978.97
2022-08-29T14:51:47.521Z,98974.01
2022-08-29T14:54:59.451Z,98969.16
2022-08-29T14:58:11.765Z,98975.66
2022-08-29T15:01:23.951Z,98973.30
2022-08-29T15:04:37.817Z,98975.42
2022-08-29T15:07:53.706Z,98965.72
2022-08-29T15:11:06.414Z,98963.93
2022-08-29T15:14:18.987Z,98963.79
2022-08-29T15:17:31.336Z,98968.08
2022-08-29T15:20:46.928Z,98965.94
2022-08-29T15:23:57.414Z,98967.61
2022-08-29T15:27:10.700Z,98968.51
2022-08-29T15:30:27.994Z,98949.48
2022-08-29T15:33:47.850Z,98958.28
2022-08-29T15:40:43.009Z,98959.20
2022-08-29T15:44:03.668Z,98960.11
2022-08-29T15:47:16.295Z,98934.07
2022-08-29T15:50:28.707Z,98955.52
2022-08-29T15:53:41.107Z,98958.23
2022-08-29T16:04:56.415Z,98962.46
2022-08-29T16:08:07.083Z,98954.84
2022-08-29T16:11:21.283Z,98951.18
2022-08-29T16:15:05.392Z,98945.15
2022-08-29T16:17:47.338Z,98950.41
2022-08-29T16:20:59.548Z,98951.00
2022-08-29T16:24:13.338Z,98954.05
2022-08-29T16:27:26.118Z,98955.97
2022-08-29T16:30:45.970Z,98950.39
2022-08-29T16:33:55.438Z,98951.05
2022-08-29T16:37:09.654Z,98940.47
2022-08-29T16:40:23.161Z,98950.06
2022-08-29T16:43:35.233Z,98953.45
2022-08-29T16:46:47.221Z,98946.43
2022-08-29T16:50:00.691Z,98947.72
2022-08-29T16:53:13.040Z,98950.28
2022-08-29T16:56:27.186Z,98939.95
2022-08-29T16:59:39.520Z,98949.72
2022-08-29T17:02:51.872Z,98954.36
2022-08-29T17:06:04.057Z,98955.84
2022-08-29T17:09:12.421Z,98940.51
2022-08-29T17:12:20.288Z,98969.02
2022-08-29T17:15:28.117Z,98971.35
2022-08-29T17:18:40.984Z,98966.44
2022-08-29T17:21:53.828Z,98973.95
2022-08-29T17:25:06.461Z,98973.33
2022-08-29T17:28:18.978Z,98983.31
2022-08-29T17:31:31.557Z,98979.38
2022-08-29T17:34:47.995Z,98986.25
2022-08-29T17:38:00.107Z,98986.91
2022-08-29T17:41:22.187Z,98991.91
2022-08-29T17:44:35.134Z,98999.59
2022-08-29T17:47:49.334Z,99003.56
2022-08-29T17:51:02.780Z,99004.36
2022-08-29T17:54:16.146Z,99008.13
2022-08-29T17:57:30.142Z,99009.34
2022-08-29T18:00:42.260Z,99023.48
2022-08-29T18:03:54.364Z,99017.23
2022-08-29T18:07:09.168Z,99029.27
2022-08-29T18:10:23.167Z,99031.38
2022-08-29T18:13:35.448Z,99029.48
2022-08-29T18:16:47.800Z,99034.44
2022-08-29T18:20:01.404Z,99036.97
2022-08-29T18:23:14.104Z,99035.47
2022-08-29T18:26:35.202Z,99035.80
2022-08-29T18:29:47.896Z,99052.80
2022-08-29T18:33:00.167Z,98999.88
2022-08-29T18:36:15.736Z,99056.89
2022-08-29T18:39:29.741Z,99053.09
2022-08-29T18:42:44.655Z,99052.98
2022-08-29T18:45:58.283Z,99059.86
2022-08-29T18:49:11.869Z,99057.95
2022-08-29T18:52:26.706Z,99071.97
2022-08-29T18:55:39.065Z,99066.95
2022-08-29T18:59:01.125Z,99076.41
2022-08-29T19:02:15.946Z,99091.89
2022-08-29T19:05:31.785Z,99093.08
2022-08-29T19:08:44.956Z,99097.72
2022-08-29T19:11:57.342Z,99100.23
2022-08-29T19:15:10.551Z,99107.31
2022-08-29T19:18:23.800Z,99096.49
2022-08-29T19:21:37.215Z,99117.08
2022-08-29T19:25:01.326Z,99128.63
2022-08-29T19:28:17.087Z,99125.48
2022-08-29T19:31:30.440Z,99131.31
2022-08-29T19:34:42.277Z,99142.45
2022-08-29T19:37:54.502Z,99141.52
2022-08-29T19:41:10.446Z,99138.09
2022-08-29T19:44:25.554Z,99147.97
2022-08-29T19:47:37.888Z,99144.82
2022-08-29T19:50:52.091Z,99139.89
2022-08-29T19:54:07.008Z,99145.67
2022-08-29T19:57:19.152Z,99134.80
2022-08-29T20:00:40.884Z,99143.72
2022-08-29T20:03:53.078Z,99150.78
2022-08-29T20:07:05.523Z,99153.83
2022-08-29T20:10:21.488Z,99155.41
2022-08-29T20:13:35.840Z,99149.77
2022-08-29T20:16:49.219Z,99159.38
2022-08-29T20:20:01.463Z,99149.66
2022-08-29T20:23:14.079Z,99156.97
2022-08-29T20:26:28.395Z,99160.28
2022-08-29T20:29:40.452Z,99166.92
2022-08-29T20:32:52.692Z,99168.38
2022-08-29T20:36:22.504Z,99150.55
2022-08-29T20:39:34.708Z,99163.00
2022-08-29T20:42:46.704Z,99163.34
2022-08-29T20:46:00.070Z,99162.06
2022-08-29T20:49:12.696Z,99156.09
2022-08-29T20:52:25.952Z,99167.19
2022-08-29T20:55:39.192Z,99156.09
2022-08-29T20:58:51.244Z,99152.09
2022-08-29T21:02:03.448Z,99159.84
2022-08-29T21:05:32.395Z,99164.94
2022-08-29T21:08:44.538Z,99167.30
2022-08-29T21:11:57.056Z,99151.91
2022-08-29T21:15:09.975Z,99152.14
2022-08-29T21:18:24.409Z,99155.95
2022-08-29T21:21:36.277Z,99161.05
2022-08-29T21:24:48.750Z,99156.67
2022-08-29T21:28:01.013Z,99159.86
2022-08-29T21:31:17.095Z,99158.48
2022-08-29T21:34:30.453Z,99166.36
2022-08-29T21:37:42.596Z,99168.02
2022-08-29T21:40:57.284Z,99171.55
2022-08-29T21:44:09.753Z,99173.95
2022-08-29T21:47:21.787Z,99167.41
2022-08-29T21:50:36.507Z,99164.27
2022-08-29T21:53:49.530Z,99174.25
2022-08-29T21:57:02.421Z,99175.24
2022-08-29T22:00:18.623Z,99174.58
2022-08-29T22:03:30.832Z,99170.39
2022-08-29T22:06:46.605Z,99171.60
2022-08-29T22:10:00.413Z,99171.64
2022-08-29T22:13:14.860Z,99171.98
2022-08-29T22:16:33.869Z,99131.02
2022-08-29T22:19:47.480Z,99177.70
2022-08-29T22:22:59.923Z,99171.02
2022-08-29T22:26:12.078Z,99166.67
2022-08-29T22:29:24.664Z,99176.83
2022-08-29T22:32:36.860Z,99176.91
2022-08-29T22:35:49.667Z,99171.86
2022-08-29T22:39:02.338Z,99175.08
2022-08-29T22:42:15.074Z,99185.81
2022-08-29T22:45:27.994Z,99193.85
2022-08-29T22:48:40.228Z,99192.02
2022-08-29T22:51:52.485Z,99170.23
2022-08-29T22:55:04.851Z,99170.71
2022-08-29T22:58:17.005Z,99185.31
2022-08-29T23:01:29.010Z,99156.16
2022-08-29T23:04:44.364Z,99189.83
2022-08-29T23:07:56.680Z,99187.14
2022-08-29T23:11:08.776Z,99184.65
2022-08-29T23:14:21.169Z,99186.98
2022-08-29T23:17:33.229Z,99186.47
2022-08-29T23:20:46.881Z,99180.27
2022-08-29T23:23:59.018Z,99186.47
2022-08-29T23:27:11.352Z,99189.47
2022-08-29T23:30:23.582Z,99201.39
2022-08-29T23:33:36.764Z,99190.33
2022-08-29T23:36:49.804Z,99185.46
2022-08-29T23:40:02.212Z,99185.95
2022-08-29T23:43:14.354Z,99191.84
2022-08-29T23:46:26.575Z,99198.35
2022-08-29T23:49:38.657Z,99200.53
2022-08-29T23:52:51.902Z,99192.48
2022-08-29T23:56:04.766Z,99202.18
2022-08-29T23:59:19.067Z,99203.63
